Nearby METAR Reports

 

KTOP - Billard Municipal Airport, Topeka, Kansas, USA
Updated: Fri, 19-Jul-2019 11:53pm CDT
Clear
Clear
 Wind from S
Wind: S 8 mph , 13 km/h
Temperature: 88°F , 31°C
Heat Index: 96°F , 36°C
Dew Point: 73°F , 23°C
Humidity: 62%
Barometer: 1009.8 hPa
Clouds: Clear
Visibility: 10 miles , 16 km
2019/07/20 04:53 KTOP 200453Z AUTO 18007KT 10SM CLR 31/23 A2982 RMK AO2 SLP086 T03060233 $
KFOE - Forbes Field Airport, Topeka, Kansas, USA
Updated: Fri, 19-Jul-2019 11:53pm CDT
Clear
Clear
 Wind from S
Wind: S 14 mph , 22 km/h
Temperature: 84°F , 29°C
Heat Index: 89°F , 32°C
Dew Point: 72°F , 22°C
Humidity: 66%
Barometer: 1010.2 hPa
Clouds: Clear
Visibility: 10 miles , 16 km
2019/07/20 04:53 KFOE 200453Z AUTO 19012KT 10SM CLR 29/22 A2983 RMK AO2 SLP084 T02940222